Time;durP1;ratioP1;P1;durP2;ratioP2;P2;SDS_P1;SDS_P2;PMS_P1;PMS_P2;Temp;Humidity;BMP_temperature;BMP_pressure;BME280_temperature;BME280_humidity;BME280_pressure;Samples;Min_cycle;Max_cycle;Signal;HPM_P1;HPM_P2
2022/05/26 00:00:08;;;;;;;2.23;1.30;;;13.10;95.30;;;;;;5074298;28;20946;-64
2022/05/26 00:02:35;;;;;;;3.43;1.40;;;13.00;95.30;;;;;;5074475;28;20768;-63
2022/05/26 00:05:02;;;;;;;2.50;1.40;;;13.00;95.40;;;;;;5074453;28;20547;-64
2022/05/26 00:07:28;;;;;;;2.43;1.40;;;13.00;95.30;;;;;;5074335;28;20440;-64
2022/05/26 00:09:55;;;;;;;2.67;1.40;;;13.00;95.40;;;;;;5074169;28;20480;-65
2022/05/26 00:12:22;;;;;;;3.13;1.40;;;13.00;95.30;;;;;;5074191;28;20432;-64
2022/05/26 00:14:51;;;;;;;3.03;1.60;;;13.00;95.30;;;;;;5074129;28;20539;-65
2022/05/26 00:17:18;;;;;;;1.93;1.10;;;13.00;95.40;;;;;;5074037;28;20505;-64
2022/05/26 00:19:45;;;;;;;3.67;1.73;;;13.00;95.20;;;;;;5073979;28;20442;-66
2022/05/26 00:22:11;;;;;;;2.53;1.30;;;13.00;95.20;;;;;;5074210;28;20530;-64
2022/05/26 00:24:38;;;;;;;2.30;1.23;;;13.00;95.40;;;;;;5074032;28;20972;-64
2022/05/26 00:27:06;;;;;;;3.07;1.30;;;13.00;95.40;;;;;;5073778;28;20546;-63
2022/05/26 00:29:34;;;;;;;4.73;1.30;;;13.00;95.40;;;;;;5073803;28;20539;-64
2022/05/26 00:32:02;;;;;;;2.70;1.60;;;12.90;95.40;;;;;;5073831;28;20909;-64
2022/05/26 00:34:29;;;;;;;2.20;1.10;;;12.90;95.30;;;;;;5073895;28;20443;-64
2022/05/26 00:36:56;;;;;;;5.10;1.57;;;12.80;95.00;;;;;;5073626;28;20530;-64
2022/05/26 00:39:24;;;;;;;3.90;1.57;;;12.80;95.10;;;;;;5073694;28;20432;-64
2022/05/26 00:41:54;;;;;;;4.43;1.53;;;12.80;95.20;;;;;;5073469;28;20523;-64
2022/05/26 00:44:22;;;;;;;2.37;1.67;;;12.60;95.40;;;;;;5073786;28;20847;-64
2022/05/26 00:46:54;;;;;;;3.50;2.00;;;12.50;95.60;;;;;;5073341;28;20460;-64
2022/05/26 00:49:34;;;;;;;2.70;1.53;;;12.50;95.70;;;;;;5073497;28;20459;-65
2022/05/26 00:52:02;;;;;;;6.80;2.10;;;12.50;96.00;;;;;;5073117;28;21045;-64
2022/05/26 00:54:30;;;;;;;2.17;1.20;;;12.40;96.10;;;;;;5073503;28;20522;-64
2022/05/26 00:57:03;;;;;;;2.20;1.53;;;12.40;96.20;;;;;;5073404;28;20526;-64
2022/05/26 00:59:37;;;;;;;2.60;1.37;;;12.30;96.40;;;;;;5073493;28;20763;-64
2022/05/26 01:02:05;;;;;;;7.47;1.83;;;12.30;96.90;;;;;;5072837;28;20442;-63
2022/05/26 01:04:38;;;;;;;3.10;1.50;;;12.20;96.80;;;;;;5073434;28;20438;-63
2022/05/26 01:07:12;;;;;;;7.10;2.90;;;12.20;97.00;;;;;;5073245;28;20531;-64
2022/05/26 01:09:39;;;;;;;8.23;2.37;;;12.20;96.80;;;;;;5073265;28;20436;-63
2022/05/26 01:12:07;;;;;;;4.77;2.20;;;12.20;96.70;;;;;;5073102;28;20519;-64
2022/05/26 01:14:38;;;;;;;4.83;2.30;;;12.20;96.50;;;;;;5073119;28;20579;-64
2022/05/26 01:17:14;;;;;;;5.27;2.30;;;12.20;96.70;;;;;;5072102;28;20439;-64
2022/05/26 01:20:14;;;;;;;5.00;2.77;;;12.20;96.60;;;;;;5073306;28;20518;-64
2022/05/26 01:23:27;;;;;;;2.83;1.70;;;12.20;96.60;;;;;;5073062;28;20442;-64
2022/05/26 01:26:33;;;;;;;3.13;2.17;;;12.10;96.50;;;;;;5072826;28;20494;-64
2022/05/26 01:29:43;;;;;;;4.53;1.90;;;12.10;96.60;;;;;;5071226;28;20436;-64
2022/05/26 01:32:21;;;;;;;3.50;1.60;;;11.90;96.50;;;;;;5061931;28;20475;-64
2022/05/26 01:34:59;;;;;;;2.60;1.90;;;11.90;96.80;;;;;;5072643;28;20481;-65
2022/05/26 01:37:33;;;;;;;2.87;2.17;;;11.90;96.90;;;;;;5072876;28;20190;-64
2022/05/26 01:40:11;;;;;;;2.97;1.67;;;11.90;96.90;;;;;;5072865;28;20933;-63
2022/05/26 01:42:47;;;;;;;5.07;2.40;;;11.90;96.90;;;;;;5072671;28;20585;-64
2022/05/26 01:45:23;;;;;;;4.33;2.50;;;11.90;96.80;;;;;;5072869;28;20439;-65
2022/05/26 01:47:59;;;;;;;2.93;1.70;;;11.90;96.80;;;;;;5072555;28;20470;-64
2022/05/26 01:50:31;;;;;;;2.57;1.50;;;11.80;96.30;;;;;;5072578;28;20479;-64
2022/05/26 01:53:19;;;;;;;2.60;1.67;;;11.80;96.00;;;;;;5072560;28;20526;-64
2022/05/26 01:55:52;;;;;;;3.40;2.00;;;11.80;96.20;;;;;;5072456;28;20497;-64
2022/05/26 01:58:25;;;;;;;3.43;2.50;;;11.70;96.30;;;;;;5072632;28;20858;-64
2022/05/26 02:00:54;;;;;;;6.40;2.00;;;11.70;96.40;;;;;;5072328;28;20483;-64
2022/05/26 02:03:27;;;;;;;4.87;1.70;;;11.70;96.30;;;;;;5072401;28;20479;-63
2022/05/26 02:05:58;;;;;;;3.25;2.00;;;11.70;96.30;;;;;;5072304;28;20515;-63
2022/05/26 02:08:31;;;;;;;4.53;1.67;;;11.70;96.30;;;;;;5072128;28;20293;-64
2022/05/26 02:11:01;;;;;;;3.95;2.33;;;11.60;96.30;;;;;;5071773;28;20474;-65
2022/05/26 02:13:33;;;;;;;3.00;2.17;;;11.70;96.30;;;;;;5072511;28;20284;-64
2022/05/26 02:16:07;;;;;;;2.92;1.85;;;11.70;96.40;;;;;;5072266;28;20193;-64
2022/05/26 02:18:41;;;;;;;5.47;2.10;;;11.60;96.30;;;;;;5072487;28;20283;-64
2022/05/26 02:21:12;;;;;;;3.40;1.87;;;11.60;96.30;;;;;;5072360;28;20486;-64
2022/05/26 02:23:47;;;;;;;3.03;2.05;;;11.60;96.50;;;;;;5072340;28;20472;-64
2022/05/26 02:26:14;;;;;;;2.70;1.88;;;11.50;96.70;;;;;;5072407;28;20276;-65
2022/05/26 02:31:29;;;;;;;5.18;3.63;;;11.50;97.40;;;;;;5075886;28;20239;-64
2022/05/26 02:34:02;;;;;;;4.72;3.38;;;11.50;97.70;;;;;;5076014;28;20244;-65
2022/05/26 02:36:33;;;;;;;5.50;2.53;;;11.40;97.90;;;;;;5076041;28;20597;-64
2022/05/26 02:38:59;;;;;;;5.90;2.53;;;11.30;98.20;;;;;;5075835;28;20898;-64
2022/05/26 02:41:28;;;;;;;5.97;2.10;;;11.30;98.40;;;;;;5075805;28;20526;-64
2022/05/26 02:43:55;;;;;;;6.15;3.42;;;11.30;98.40;;;;;;5075842;28;20296;-64
2022/05/26 02:46:32;;;;;;;5.20;3.33;;;11.30;98.40;;;;;;5075743;28;20226;-64
2022/05/26 02:49:17;;;;;;;5.68;3.75;;;11.40;98.40;;;;;;5075842;28;20280;-64
2022/05/26 02:51:53;;;;;;;4.22;2.88;;;11.50;98.30;;;;;;5075939;28;20252;-65
2022/05/26 02:54:29;;;;;;;5.30;2.60;;;11.50;98.00;;;;;;5075586;28;20197;-64
2022/05/26 02:57:08;;;;;;;3.63;2.15;;;11.50;97.70;;;;;;5075452;28;20232;-63
2022/05/26 02:59:42;;;;;;;8.25;3.35;;;11.60;97.30;;;;;;5075765;28;20731;-64
2022/05/26 03:02:15;;;;;;;2.63;2.03;;;11.60;97.30;;;;;;5075556;28;20284;-64
2022/05/26 03:04:47;;;;;;;9.05;2.10;;;11.60;97.30;;;;;;5075865;28;20523;-64
2022/05/26 03:07:17;;;;;;;3.88;1.63;;;11.60;97.30;;;;;;5075578;28;20281;-65
2022/05/26 03:09:44;;;;;;;3.15;1.85;;;11.60;97.30;;;;;;5075589;28;20659;-67
2022/05/26 03:12:22;;;;;;;2.10;1.60;;;11.70;97.00;;;;;;5075202;28;20568;-63
2022/05/26 03:14:49;;;;;;;2.50;1.98;;;11.70;97.00;;;;;;5075375;28;20498;-64
2022/05/26 03:17:17;;;;;;;5.03;2.67;;;11.70;96.80;;;;;;5075195;28;20196;-64
2022/05/26 03:19:45;;;;;;;8.90;3.60;;;11.70;96.70;;;;;;5075165;28;20440;-65
2022/05/26 03:22:12;;;;;;;3.75;2.50;;;11.70;96.60;;;;;;5075319;28;20278;-64
2022/05/26 03:24:39;;;;;;;4.93;2.33;;;11.70;96.90;;;;;;5075136;28;20651;-64
2022/05/26 03:27:06;;;;;;;5.40;1.70;;;11.60;97.00;;;;;;5075060;28;21011;-63
2022/05/26 03:29:34;;;;;;;3.88;2.08;;;11.60;97.00;;;;;;5075051;28;21074;-63
2022/05/26 03:32:01;;;;;;;6.20;2.42;;;11.60;96.90;;;;;;5075048;28;20260;-64
2022/05/26 03:42:43;;;;;;;6.60;1.90;;;11.70;96.60;;;;;;5033481;28;20424;-63
2022/05/26 03:45:12;;;;;;;3.15;1.83;;;11.70;96.10;;;;;;5074593;28;20531;-64
2022/05/26 03:47:39;;;;;;;2.43;1.77;;;11.70;96.20;;;;;;5074730;28;20317;-64
2022/05/26 03:50:07;;;;;;;2.93;1.53;;;11.70;96.10;;;;;;5074735;28;20440;-64
2022/05/26 03:52:36;;;;;;;3.85;1.92;;;11.60;96.30;;;;;;5074377;28;20570;-63
2022/05/26 03:55:03;;;;;;;5.27;2.27;;;11.60;96.40;;;;;;5074405;28;20193;-64
2022/05/26 03:57:31;;;;;;;2.57;1.60;;;11.60;96.30;;;;;;5074423;28;20524;-64
2022/05/26 03:59:59;;;;;;;2.93;1.60;;;11.70;96.40;;;;;;5074443;28;20472;-64
2022/05/26 04:02:26;;;;;;;6.10;1.80;;;11.70;96.30;;;;;;5074640;28;20527;-65
2022/05/26 04:04:53;;;;;;;2.47;1.50;;;11.70;96.50;;;;;;5074590;28;20902;-64
2022/05/26 04:07:20;;;;;;;2.70;1.87;;;11.80;96.40;;;;;;5074419;28;20442;-63
2022/05/26 04:09:48;;;;;;;2.77;1.70;;;11.80;96.40;;;;;;5074428;28;20446;-65
2022/05/26 04:12:17;;;;;;;2.67;1.77;;;11.80;96.20;;;;;;5074518;28;20479;-65
2022/05/26 04:14:44;;;;;;;3.10;2.20;;;11.80;96.40;;;;;;5074445;28;20436;-65
2022/05/26 04:17:11;;;;;;;4.67;2.00;;;11.70;96.80;;;;;;5074418;28;20527;-64
2022/05/26 04:19:41;;;;;;;2.67;1.93;;;11.70;97.10;;;;;;5074468;28;20528;-63
2022/05/26 04:22:21;;;;;;;3.20;1.97;;;11.80;97.30;;;;;;5074360;28;20440;-64
2022/05/26 04:24:52;;;;;;;4.10;1.60;;;11.90;97.50;;;;;;5073947;28;20436;-64
2022/05/26 04:27:21;;;;;;;3.20;2.23;;;12.00;97.40;;;;;;5074091;28;20522;-65
2022/05/26 04:29:48;;;;;;;2.23;1.43;;;12.10;97.50;;;;;;5074171;28;20839;-64
2022/05/26 04:32:15;;;;;;;6.77;1.80;;;12.20;97.60;;;;;;5073597;28;20525;-64
2022/05/26 04:34:45;;;;;;;2.40;1.53;;;12.30;97.70;;;;;;5074033;28;20936;-64
2022/05/26 04:37:12;;;;;;;2.43;1.40;;;12.40;97.90;;;;;;5074137;28;20836;-64
2022/05/26 04:39:39;;;;;;;3.53;1.27;;;12.60;98.20;;;;;;5073766;28;20532;-64
2022/05/26 04:42:09;;;;;;;3.77;1.90;;;12.70;98.30;;;;;;5073958;28;20530;-64
2022/05/26 04:44:38;;;;;;;2.50;1.60;;;12.90;98.50;;;;;;5073921;28;20451;-64
2022/05/26 04:47:06;;;;;;;3.60;1.73;;;13.00;98.60;;;;;;5073825;28;20551;-64
2022/05/26 04:49:35;;;;;;;2.67;1.77;;;13.10;97.80;;;;;;5073559;28;20523;-64
2022/05/26 04:52:02;;;;;;;2.13;1.40;;;13.20;97.50;;;;;;5072980;28;20486;-64
2022/05/26 04:54:29;;;;;;;3.00;1.87;;;13.30;97.20;;;;;;5073797;28;20447;-64
2022/05/26 04:56:57;;;;;;;2.43;1.47;;;13.40;97.10;;;;;;5073601;28;20530;-64
2022/05/26 04:59:26;;;;;;;3.03;2.10;;;13.40;97.00;;;;;;5073151;28;20432;-64
2022/05/26 05:01:53;;;;;;;3.70;1.93;;;13.50;96.90;;;;;;5073412;28;20435;-64
2022/05/26 05:04:23;;;;;;;2.60;1.50;;;13.60;96.70;;;;;;5073303;28;20436;-65
2022/05/26 05:06:50;;;;;;;3.20;2.20;;;13.70;96.90;;;;;;5073054;28;20523;-64
2022/05/26 05:09:17;;;;;;;2.63;1.60;;;13.80;97.10;;;;;;5073175;28;20534;-64
2022/05/26 05:11:44;;;;;;;2.90;1.70;;;13.90;97.20;;;;;;5073245;28;20472;-64
2022/05/26 05:14:12;;;;;;;2.30;1.50;;;14.00;97.10;;;;;;5073240;28;20442;-64
2022/05/26 05:16:43;;;;;;;2.80;1.67;;;14.10;97.00;;;;;;5072894;28;20902;-64
2022/05/26 05:19:11;;;;;;;3.80;2.73;;;14.20;96.60;;;;;;5073351;28;20436;-64
2022/05/26 05:21:42;;;;;;;5.17;2.20;;;14.30;96.40;;;;;;5073166;28;20444;-64
2022/05/26 05:24:16;;;;;;;2.60;1.60;;;14.40;96.30;;;;;;5073419;28;20502;-64
2022/05/26 05:26:50;;;;;;;2.57;1.50;;;14.60;95.90;;;;;;5073495;28;20519;-64
2022/05/26 05:29:20;;;;;;;3.27;2.00;;;14.80;95.50;;;;;;5073214;28;20436;-65
2022/05/26 05:31:53;;;;;;;2.67;1.53;;;15.00;95.30;;;;;;5073327;28;20498;-64
2022/05/26 05:34:24;;;;;;;2.70;1.70;;;15.10;94.90;;;;;;5073227;28;20518;-65
2022/05/26 05:36:51;;;;;;;4.87;1.90;;;15.20;94.40;;;;;;5072768;28;20448;-65
2022/05/26 05:39:18;;;;;;;2.33;1.33;;;15.30;94.00;;;;;;5072953;28;20440;-64
2022/05/26 05:41:45;;;;;;;3.20;1.60;;;15.30;92.60;;;;;;5072730;28;20448;-65
2022/05/26 05:44:12;;;;;;;2.10;1.30;;;15.40;91.90;;;;;;5073329;28;20447;-64
2022/05/26 05:49:36;;;;;;;3.40;1.37;;;15.50;91.80;;;;;;5090335;27;20598;-64
2022/05/26 05:52:12;;;;;;;4.13;1.73;;;15.60;91.70;;;;;;5090382;28;20438;-64
2022/05/26 05:54:40;;;;;;;2.90;1.67;;;15.60;92.00;;;;;;5090530;28;20483;-65
2022/05/26 05:57:07;;;;;;;5.60;1.43;;;15.80;90.90;;;;;;5090255;28;20439;-65
2022/05/26 05:59:34;;;;;;;2.73;1.50;;;15.90;90.70;;;;;;5090514;28;20812;-65
2022/05/26 06:02:01;;;;;;;2.87;1.67;;;15.90;90.20;;;;;;5090377;28;20439;-65
2022/05/26 06:04:28;;;;;;;4.20;1.47;;;16.00;90.70;;;;;;5089863;28;20439;-64
2022/05/26 06:06:58;;;;;;;7.17;1.40;;;16.10;90.20;;;;;;5090399;28;20535;-64
2022/05/26 06:09:25;;;;;;;2.83;1.10;;;16.30;90.20;;;;;;5090281;28;20548;-64
2022/05/26 06:11:52;;;;;;;4.07;1.97;;;16.50;90.70;;;;;;5090045;28;20521;-65
2022/05/26 06:14:19;;;;;;;5.50;2.00;;;16.60;90.20;;;;;;5090179;28;20471;-65
2022/05/26 06:16:46;;;;;;;3.33;1.23;;;16.80;90.10;;;;;;5090004;28;20481;-66
2022/05/26 06:19:13;;;;;;;3.40;2.33;;;17.00;89.60;;;;;;5089934;28;20431;-64
2022/05/26 06:21:41;;;;;;;2.40;1.40;;;17.10;88.60;;;;;;5090184;28;20469;-64
2022/05/26 06:24:10;;;;;;;2.30;1.40;;;17.20;84.60;;;;;;5090144;28;20439;-64
2022/05/26 06:26:37;;;;;;;3.93;1.60;;;17.20;85.60;;;;;;5089841;28;20442;-65
2022/05/26 06:37:16;;;;;;;3.30;1.40;;;17.70;85.60;;;;;;5090047;28;20511;-64
2022/05/26 06:39:46;;;;;;;5.13;1.47;;;17.80;85.20;;;;;;5089673;28;20517;-64
2022/05/26 06:42:13;;;;;;;3.03;1.10;;;17.80;84.30;;;;;;5089678;28;20888;-64
2022/05/26 06:44:42;;;;;;;2.27;1.00;;;17.80;83.90;;;;;;5089744;28;20991;-64
2022/05/26 06:47:11;;;;;;;3.40;1.40;;;17.80;83.50;;;;;;5089315;28;20439;-64
2022/05/26 06:49:40;;;;;;;3.00;1.23;;;17.80;82.90;;;;;;5089395;28;20570;-64
2022/05/26 06:52:08;;;;;;;5.17;1.47;;;17.80;82.60;;;;;;5089498;28;20467;-64
2022/05/26 06:54:37;;;;;;;2.10;1.20;;;17.80;82.50;;;;;;5089377;28;20526;-64
2022/05/26 06:57:06;;;;;;;2.17;1.20;;;17.70;80.90;;;;;;5089366;28;20439;-64
2022/05/26 06:59:33;;;;;;;2.67;1.60;;;17.80;79.90;;;;;;5083134;28;20436;-64
2022/05/26 07:02:00;;;;;;;2.37;1.13;;;17.90;80.50;;;;;;5075863;28;20483;-64
2022/05/26 07:04:27;;;;;;;2.40;1.50;;;18.00;81.30;;;;;;5075858;28;20518;-64
2022/05/26 07:06:55;;;;;;;2.67;1.60;;;18.20;82.60;;;;;;5075837;28;20431;-64
2022/05/26 07:09:24;;;;;;;2.10;1.10;;;18.40;82.50;;;;;;5075658;28;20570;-64
2022/05/26 07:11:51;;;;;;;2.83;1.40;;;18.60;80.80;;;;;;5075648;28;20530;-64
2022/05/26 07:14:20;;;;;;;3.70;1.23;;;18.80;81.00;;;;;;5075650;28;20436;-66
2022/05/26 07:16:47;;;;;;;2.30;1.30;;;19.10;81.30;;;;;;5075477;28;20505;-65
2022/05/26 07:19:15;;;;;;;3.80;1.70;;;19.20;78.80;;;;;;5075556;28;20527;-64
2022/05/26 07:21:45;;;;;;;2.63;1.20;;;19.40;74.80;;;;;;5074926;28;20526;-64
2022/05/26 07:24:12;;;;;;;2.13;1.00;;;19.50;76.50;;;;;;5075688;28;20474;-64
2022/05/26 07:26:39;;;;;;;2.27;1.23;;;19.70;76.80;;;;;;5075260;28;20454;-64
2022/05/26 07:29:06;;;;;;;2.20;1.10;;;19.80;73.40;;;;;;5075230;28;20486;-68
2022/05/26 07:31:34;;;;;;;2.30;1.00;;;19.90;74.10;;;;;;5075379;28;20442;-64
2022/05/26 07:34:02;;;;;;;1.90;1.07;;;20.10;71.80;;;;;;5075314;28;20436;-64
2022/05/26 07:42:08;;;;;;;2.70;1.63;;;20.30;70.50;;;;;;5017681;28;20423;-64
2022/05/26 07:44:38;;;;;;;3.03;1.00;;;20.50;71.50;;;;;;5075144;28;20497;-64
2022/05/26 07:47:08;;;;;;;2.30;1.17;;;20.60;70.60;;;;;;5075098;28;20801;-66
2022/05/26 07:49:36;;;;;;;4.23;1.17;;;20.70;69.30;;;;;;5071382;28;20570;-69
2022/05/26 07:52:04;;;;;;;3.00;1.57;;;20.50;61.40;;;;;;5074207;28;20444;-64
2022/05/26 07:54:31;;;;;;;2.80;1.30;;;20.30;61.60;;;;;;5074715;28;20443;-64
2022/05/26 07:56:59;;;;;;;2.60;1.40;;;20.30;64.10;;;;;;5074558;28;20436;-64
2022/05/26 07:59:26;;;;;;;1.90;0.90;;;20.20;66.70;;;;;;5074738;28;20844;-64
2022/05/26 08:01:53;;;;;;;2.27;1.17;;;20.20;66.50;;;;;;5074708;28;20436;-65
2022/05/26 08:04:22;;;;;;;3.63;1.07;;;20.20;67.50;;;;;;5074735;28;20446;-65
2022/05/26 08:06:49;;;;;;;2.23;0.93;;;20.20;67.20;;;;;;5073997;28;20447;-64
2022/05/26 08:09:18;;;;;;;3.13;1.33;;;20.20;61.90;;;;;;5074453;28;20537;-64
2022/05/26 08:11:46;;;;;;;2.87;1.77;;;20.20;63.50;;;;;;5073788;28;20475;-65
2022/05/26 08:14:13;;;;;;;3.37;1.13;;;20.30;66.60;;;;;;5074761;28;20850;-65
2022/05/26 08:16:40;;;;;;;4.77;1.03;;;20.40;67.00;;;;;;5074517;28;20483;-64
2022/05/26 08:19:08;;;;;;;4.37;0.97;;;20.60;63.30;;;;;;5074290;28;20447;-65
2022/05/26 08:21:36;;;;;;;3.33;0.97;;;20.70;63.20;;;;;;5074591;28;20440;-64
2022/05/26 08:24:04;;;;;;;3.80;1.10;;;20.90;63.30;;;;;;5074294;28;20447;-64
2022/05/26 08:26:32;;;;;;;5.60;2.00;;;21.20;64.10;;;;;;5074290;28;20440;-65
2022/05/26 08:28:59;;;;;;;3.30;1.40;;;21.50;62.20;;;;;;5073810;28;20574;-65
2022/05/26 08:31:26;;;;;;;2.40;1.00;;;21.70;60.60;;;;;;5074060;28;20436;-65
2022/05/26 08:33:53;;;;;;;2.70;1.63;;;22.00;60.80;;;;;;5074243;28;20812;-64
2022/05/26 08:36:23;;;;;;;2.87;1.20;;;22.20;61.10;;;;;;5073842;28;20475;-66
2022/05/26 08:38:52;;;;;;;2.63;0.80;;;22.40;59.20;;;;;;5073870;28;20458;-65
2022/05/26 08:41:23;;;;;;;2.57;1.23;;;22.60;57.30;;;;;;5073566;28;20442;-65
2022/05/26 08:43:55;;;;;;;4.83;0.97;;;22.80;57.20;;;;;;5073708;28;20535;-65
2022/05/26 08:46:25;;;;;;;5.40;1.20;;;22.90;54.00;;;;;;5073871;28;20578;-65
2022/05/26 08:48:59;;;;;;;1.97;0.83;;;23.00;53.80;;;;;;5073172;28;20575;-65
2022/05/26 08:51:40;;;;;;;2.43;1.07;;;23.10;53.70;;;;;;5073613;28;20530;-65
2022/05/26 08:54:15;;;;;;;2.00;0.90;;;23.30;52.40;;;;;;5073675;28;20444;-65
2022/05/26 08:56:43;;;;;;;6.30;1.07;;;23.30;52.20;;;;;;5073542;28;20538;-65
2022/05/26 08:59:14;;;;;;;3.40;1.10;;;23.10;52.00;;;;;;5073481;28;20480;-68
2022/05/26 09:01:41;;;;;;;2.10;0.97;;;23.10;52.80;;;;;;5073114;28;20512;-65
2022/05/26 09:04:10;;;;;;;7.57;1.33;;;23.10;52.10;;;;;;5073433;28;20519;-64
2022/05/26 09:15:02;;;;;;;3.90;1.47;;;24.30;52.20;;;;;;5073203;28;20425;-65
2022/05/26 09:17:30;;;;;;;4.50;1.00;;;24.40;50.00;;;;;;5072954;28;20445;-65
2022/05/26 09:20:02;;;;;;;6.33;1.40;;;24.40;48.40;;;;;;5072955;28;20843;-65
2022/05/26 09:22:31;;;;;;;1.70;0.83;;;24.50;47.00;;;;;;5072678;28;20489;-64
2022/05/26 09:25:01;;;;;;;2.50;0.87;;;24.50;48.80;;;;;;5073335;28;20529;-65
2022/05/26 09:27:30;;;;;;;3.10;0.90;;;24.70;50.60;;;;;;5072651;28;20960;-65
2022/05/26 09:30:18;;;;;;;4.53;0.90;;;24.80;51.60;;;;;;5072842;28;20936;-64
2022/05/26 09:32:45;;;;;;;4.07;0.93;;;24.90;48.90;;;;;;5072984;28;20528;-66
2022/05/26 09:35:15;;;;;;;2.70;0.90;;;24.90;47.70;;;;;;5072975;28;20521;-65
2022/05/26 09:37:44;;;;;;;2.07;0.90;;;24.90;47.40;;;;;;5073118;28;20479;-65
2022/05/26 09:40:19;;;;;;;5.30;0.83;;;25.00;46.80;;;;;;5072784;28;20453;-65
2022/05/26 09:42:51;;;;;;;3.60;1.00;;;25.10;47.40;;;;;;5069821;28;20909;-67
2022/05/26 09:45:21;;;;;;;3.63;1.10;;;25.20;46.10;;;;;;5071062;28;20432;-65
2022/05/26 09:47:54;;;;;;;3.03;0.97;;;25.40;46.90;;;;;;5070515;28;20474;-65
2022/05/26 09:50:42;;;;;;;3.30;1.03;;;25.70;46.70;;;;;;5070689;28;20573;-66
2022/05/26 09:53:18;;;;;;;2.57;0.93;;;25.90;45.30;;;;;;5071153;28;20439;-65
2022/05/26 09:55:54;;;;;;;2.60;1.10;;;25.90;44.40;;;;;;5071112;28;20460;-65
2022/05/26 09:58:29;;;;;;;1.87;0.73;;;25.90;43.40;;;;;;5070722;28;20474;-65
2022/05/26 10:01:00;;;;;;;2.07;1.07;;;25.90;43.70;;;;;;5071302;28;20994;-65
2022/05/26 10:03:34;;;;;;;1.93;0.80;;;25.90;42.40;;;;;;5070818;28;20478;-65
2022/05/26 10:06:15;;;;;;;2.27;0.83;;;25.90;41.90;;;;;;5070777;28;20440;-65
2022/05/26 10:08:52;;;;;;;6.57;1.40;;;26.00;42.60;;;;;;5071349;28;20488;-65
2022/05/26 10:11:35;;;;;;;4.87;1.40;;;25.90;42.10;;;;;;5071401;28;20945;-65
2022/05/26 10:14:12;;;;;;;2.20;1.30;;;25.90;42.60;;;;;;5070951;28;20444;-65
2022/05/26 10:16:45;;;;;;;5.33;1.60;;;25.90;42.30;;;;;;5071805;28;20438;-65
2022/05/26 10:19:30;;;;;;;3.30;1.20;;;26.00;42.30;;;;;;5070926;28;20432;-65
2022/05/26 10:22:08;;;;;;;5.37;1.20;;;26.00;41.40;;;;;;5070753;28;20844;-64
2022/05/26 10:25:06;;;;;;;3.03;1.10;;;26.00;42.00;;;;;;5070511;28;20489;-64
2022/05/26 10:27:48;;;;;;;3.90;1.50;;;25.90;42.10;;;;;;5070598;28;20447;-65
2022/05/26 10:30:24;;;;;;;5.57;1.23;;;25.60;43.00;;;;;;5070800;28;20997;-65
2022/05/26 10:33:15;;;;;;;2.80;1.13;;;25.30;43.40;;;;;;5071039;28;20517;-65
2022/05/26 10:35:56;;;;;;;2.97;1.20;;;25.10;43.40;;;;;;5071139;28;20449;-64
2022/05/26 10:38:51;;;;;;;4.73;1.60;;;24.80;44.80;;;;;;5074718;28;20447;-65
2022/05/26 10:41:26;;;;;;;2.93;1.20;;;24.60;45.10;;;;;;5071070;28;20457;-67
2022/05/26 10:44:03;;;;;;;2.77;1.10;;;24.40;45.20;;;;;;5074888;28;21020;-65
2022/05/26 10:46:35;;;;;;;2.73;1.03;;;24.30;45.40;;;;;;5074229;28;20441;-65
2022/05/26 10:49:07;;;;;;;2.87;1.13;;;24.20;45.20;;;;;;5074248;28;20491;-65
2022/05/26 10:51:41;;;;;;;2.40;1.17;;;24.20;46.20;;;;;;5074568;28;20444;-65
2022/05/26 10:54:14;;;;;;;2.60;0.97;;;24.20;45.90;;;;;;5074777;28;20530;-64
2022/05/26 10:56:46;;;;;;;4.40;1.00;;;24.20;45.70;;;;;;5074448;28;20945;-69
2022/05/26 10:59:21;;;;;;;2.73;1.07;;;24.40;46.40;;;;;;5074312;28;20445;-64
2022/05/26 11:01:55;;;;;;;2.37;0.83;;;24.70;46.80;;;;;;5074817;28;20449;-65
2022/05/26 11:04:28;;;;;;;5.00;2.07;;;25.00;45.80;;;;;;5074647;28;20446;-65
2022/05/26 11:07:00;;;;;;;2.63;1.10;;;25.30;45.20;;;;;;5074398;28;20463;-65
2022/05/26 11:09:36;;;;;;;2.70;0.97;;;25.40;45.40;;;;;;5073804;28;20489;-69
2022/05/26 11:12:09;;;;;;;2.07;1.10;;;25.50;45.80;;;;;;5074031;28;20496;-65
2022/05/26 11:17:42;;;;;;;2.63;1.20;;;25.60;43.70;;;;;;5074250;28;20421;-65
2022/05/26 11:20:14;;;;;;;4.50;1.00;;;25.70;44.20;;;;;;5074466;28;20445;-65
2022/05/26 11:22:45;;;;;;;2.37;1.30;;;25.90;44.20;;;;;;5073870;28;20443;-64
2022/05/26 11:25:15;;;;;;;3.20;1.60;;;26.00;42.80;;;;;;5073553;28;20940;-67
2022/05/26 11:27:49;;;;;;;3.00;1.20;;;26.00;41.80;;;;;;5074049;28;20447;-65
2022/05/26 11:36:15;;;;;;;3.40;1.40;;;26.00;43.50;;;;;;5074021;28;20475;-65
2022/05/26 11:38:45;;;;;;;2.20;1.00;;;26.20;42.80;;;;;;5073971;28;20484;-64
2022/05/26 11:41:16;;;;;;;2.50;1.00;;;26.50;43.90;;;;;;5073631;28;20444;-66
2022/05/26 11:43:48;;;;;;;2.87;1.10;;;26.60;43.20;;;;;;5074062;28;20471;-64
2022/05/26 11:46:48;;;;;;;2.60;1.00;;;26.80;42.30;;;;;;5073272;28;20885;-66
2022/05/26 11:49:49;;;;;;;2.70;0.90;;;26.90;41.90;;;;;;5073860;28;20554;-65
2022/05/26 11:52:25;;;;;;;2.43;1.33;;;27.20;40.90;;;;;;5073632;28;20481;-66
2022/05/26 11:55:10;;;;;;;2.20;1.03;;;27.30;40.50;;;;;;5073817;28;20435;-66
2022/05/26 11:57:49;;;;;;;2.00;1.00;;;27.20;39.80;;;;;;5073858;28;20454;-65
2022/05/26 12:00:24;;;;;;;2.57;1.00;;;27.40;40.40;;;;;;5073414;28;20441;-66
2022/05/26 12:03:28;;;;;;;2.07;0.90;;;27.50;38.20;;;;;;5073525;28;20914;-65
2022/05/26 12:06:12;;;;;;;3.93;1.00;;;27.70;39.90;;;;;;5073400;28;20447;-65
2022/05/26 12:08:45;;;;;;;3.33;0.80;;;27.90;40.20;;;;;;5072658;28;21003;-65
2022/05/26 12:11:17;;;;;;;2.10;0.87;;;27.90;37.00;;;;;;5072947;28;21019;-65
2022/05/26 12:13:44;;;;;;;3.20;0.93;;;27.70;38.60;;;;;;5072935;28;20463;-65
2022/05/26 12:16:28;;;;;;;2.53;1.13;;;27.50;40.00;;;;;;5072266;28;20494;-66
2022/05/26 12:18:59;;;;;;;4.47;1.03;;;27.40;40.10;;;;;;5072779;28;20479;-66
2022/05/26 12:21:46;;;;;;;2.10;0.87;;;27.40;40.10;;;;;;5073181;28;20569;-65
2022/05/26 12:24:50;;;;;;;4.17;0.80;;;27.50;38.10;;;;;;5073110;28;20775;-65
2022/05/26 12:27:56;;;;;;;2.57;0.90;;;27.50;38.10;;;;;;5072575;28;20447;-67
2022/05/26 12:30:37;;;;;;;1.80;0.80;;;27.60;38.50;;;;;;5072599;28;20483;-65
2022/05/26 12:33:29;;;;;;;4.93;0.80;;;27.50;37.50;;;;;;5072378;28;20436;-65
2022/05/26 12:36:03;;;;;;;1.80;0.90;;;27.40;39.20;;;;;;5072978;28;20488;-65
2022/05/26 12:39:03;;;;;;;5.13;0.80;;;27.50;40.10;;;;;;5072455;28;20431;-65
2022/05/26 12:41:41;;;;;;;1.80;0.80;;;27.60;40.60;;;;;;5072022;28;20478;-65
2022/05/26 12:44:29;;;;;;;3.00;0.80;;;27.70;40.40;;;;;;5072485;28;20475;-66
2022/05/26 12:47:10;;;;;;;4.07;1.57;;;27.80;39.70;;;;;;5071466;28;20432;-65
2022/05/26 12:50:02;;;;;;;4.47;1.40;;;27.80;38.40;;;;;;5072190;28;20487;-65
2022/05/26 12:52:35;;;;;;;2.43;1.20;;;27.60;36.70;;;;;;5070335;28;20451;-65
2022/05/26 12:55:17;;;;;;;3.03;1.20;;;27.40;37.00;;;;;;5071316;28;20440;-65
2022/05/26 12:57:51;;;;;;;2.53;0.83;;;27.20;37.60;;;;;;5071891;28;20432;-65
2022/05/26 13:00:34;;;;;;;5.50;1.20;;;27.00;38.60;;;;;;5072089;28;20490;-65
2022/05/26 13:03:04;;;;;;;3.10;0.90;;;26.80;38.70;;;;;;5071681;28;20557;-65
2022/05/26 13:05:35;;;;;;;2.37;0.80;;;26.60;39.90;;;;;;5071658;28;20527;-65
2022/05/26 13:08:05;;;;;;;2.30;0.80;;;26.50;41.60;;;;;;5072027;28;20829;-64
2022/05/26 13:10:36;;;;;;;3.10;1.77;;;26.50;42.00;;;;;;5071555;28;20486;-65
2022/05/26 13:13:08;;;;;;;4.10;1.20;;;26.50;42.20;;;;;;5071599;28;20440;-65
2022/05/26 13:15:35;;;;;;;4.00;1.10;;;26.50;40.00;;;;;;5071730;28;20489;-65
2022/05/26 13:18:03;;;;;;;2.53;0.97;;;26.40;39.60;;;;;;5072185;28;20467;-65
2022/05/26 13:20:34;;;;;;;1.80;0.83;;;26.40;38.50;;;;;;5071569;28;20440;-65
2022/05/26 13:23:06;;;;;;;12.10;10.83;;;26.20;38.80;;;;;;5071834;28;20479;-65
2022/05/26 13:25:36;;;;;;;3.27;1.37;;;26.30;40.60;;;;;;5071865;28;20444;-65
2022/05/26 13:28:05;;;;;;;2.10;0.90;;;26.30;40.80;;;;;;5072787;28;20443;-65
2022/05/26 13:33:23;;;;;;;5.73;1.03;;;26.20;39.50;;;;;;5073010;28;20416;-65
2022/05/26 13:35:57;;;;;;;2.17;1.10;;;26.30;40.40;;;;;;5072866;28;20502;-65
2022/05/26 13:38:30;;;;;;;3.30;0.80;;;26.30;39.70;;;;;;5073080;28;20432;-66
2022/05/26 13:41:00;;;;;;;2.43;1.00;;;26.40;38.80;;;;;;5072364;28;20451;-65
2022/05/26 13:43:28;;;;;;;2.40;1.10;;;26.30;39.00;;;;;;5072545;28;20443;-65
2022/05/26 13:45:57;;;;;;;2.67;1.07;;;26.30;38.00;;;;;;5072580;28;20930;-65
2022/05/26 13:48:31;;;;;;;2.67;0.97;;;26.30;39.00;;;;;;5072563;28;20464;-65
2022/05/26 13:51:06;;;;;;;3.43;1.20;;;26.40;39.70;;;;;;5072371;28;20562;-65
2022/05/26 13:53:39;;;;;;;5.00;1.03;;;26.40;38.30;;;;;;5071188;28;20435;-65
2022/05/26 13:56:10;;;;;;;5.30;1.20;;;26.40;39.50;;;;;;5071335;28;20448;-65
2022/05/26 13:58:38;;;;;;;2.37;0.80;;;26.50;40.50;;;;;;5071616;28;20458;-64
2022/05/26 14:01:08;;;;;;;2.53;0.93;;;26.50;39.60;;;;;;5071520;28;20526;-65